sensor_id;sensor_type;location;lat;lon;timestamp;pressure;altitude;pressure_sealevel;temperature;humidity
28004;BME280;15330;51.234;6.754;2024-01-06T00:00:13;99902.16;;;7.13;89.36
28004;BME280;15330;51.234;6.754;2024-01-06T00:02:38;99903.59;;;7.27;89.16
28004;BME280;15330;51.234;6.754;2024-01-06T00:05:05;99905.16;;;7.30;88.93
28004;BME280;15330;51.234;6.754;2024-01-06T00:07:30;99907.09;;;7.28;89.31
28004;BME280;15330;51.234;6.754;2024-01-06T00:09:56;99912.84;;;7.23;88.99
28004;BME280;15330;51.234;6.754;2024-01-06T00:12:21;99917.59;;;7.19;89.58
28004;BME280;15330;51.234;6.754;2024-01-06T00:14:46;99928.53;;;7.26;89.23
28004;BME280;15330;51.234;6.754;2024-01-06T00:17:12;99929.13;;;7.09;89.80
28004;BME280;15330;51.234;6.754;2024-01-06T00:19:37;99934.19;;;7.33;88.93
28004;BME280;15330;51.234;6.754;2024-01-06T00:22:03;99943.00;;;7.33;88.94
28004;BME280;15330;51.234;6.754;2024-01-06T00:24:28;99936.84;;;7.33;89.02
28004;BME280;15330;51.234;6.754;2024-01-06T00:26:53;99941.53;;;7.19;89.11
28004;BME280;15330;51.234;6.754;2024-01-06T00:29:19;99943.88;;;7.13;90.18
28004;BME280;15330;51.234;6.754;2024-01-06T00:31:44;99939.34;;;7.34;88.76
28004;BME280;15330;51.234;6.754;2024-01-06T00:34:09;99948.59;;;7.30;88.99
28004;BME280;15330;51.234;6.754;2024-01-06T00:36:35;99946.91;;;7.29;88.75
28004;BME280;15330;51.234;6.754;2024-01-06T00:39:00;99953.47;;;7.25;89.31
28004;BME280;15330;51.234;6.754;2024-01-06T00:41:25;99954.81;;;7.10;90.12
28004;BME280;15330;51.234;6.754;2024-01-06T00:43:51;99949.28;;;7.02;90.59
28004;BME280;15330;51.234;6.754;2024-01-06T00:46:16;99950.78;;;7.25;89.58
28004;BME280;15330;51.234;6.754;2024-01-06T00:48:42;99955.34;;;7.34;88.98
28004;BME280;15330;51.234;6.754;2024-01-06T00:51:07;99946.97;;;7.39;88.79
28004;BME280;15330;51.234;6.754;2024-01-06T00:53:33;99949.00;;;7.26;89.89
28004;BME280;15330;51.234;6.754;2024-01-06T00:55:58;99944.69;;;7.34;88.90
28004;BME280;15330;51.234;6.754;2024-01-06T00:58:23;99945.22;;;7.28;89.52
28004;BME280;15330;51.234;6.754;2024-01-06T01:00:49;99950.00;;;7.34;89.91
28004;BME280;15330;51.234;6.754;2024-01-06T01:03:15;99952.56;;;7.36;89.10
28004;BME280;15330;51.234;6.754;2024-01-06T01:05:40;99961.06;;;7.30;89.13
28004;BME280;15330;51.234;6.754;2024-01-06T01:08:05;99959.81;;;7.34;89.24
28004;BME280;15330;51.234;6.754;2024-01-06T01:10:31;99960.41;;;7.37;89.23
28004;BME280;15330;51.234;6.754;2024-01-06T01:12:56;99958.72;;;7.36;88.54
28004;BME280;15330;51.234;6.754;2024-01-06T01:15:22;99963.69;;;7.20;89.77
28004;BME280;15330;51.234;6.754;2024-01-06T01:17:47;99965.97;;;7.34;88.90
28004;BME280;15330;51.234;6.754;2024-01-06T01:20:12;99966.81;;;7.35;89.36
28004;BME280;15330;51.234;6.754;2024-01-06T01:22:38;99970.50;;;7.43;89.25
28004;BME280;15330;51.234;6.754;2024-01-06T01:25:03;99964.56;;;7.30;89.27
28004;BME280;15330;51.234;6.754;2024-01-06T01:27:33;99976.06;;;7.31;89.87
28004;BME280;15330;51.234;6.754;2024-01-06T01:29:59;99973.53;;;7.29;89.72
28004;BME280;15330;51.234;6.754;2024-01-06T01:32:24;99969.94;;;7.40;89.45
28004;BME280;15330;51.234;6.754;2024-01-06T01:34:49;99978.91;;;7.39;89.72
28004;BME280;15330;51.234;6.754;2024-01-06T01:37:15;99980.34;;;7.43;89.19
28004;BME280;15330;51.234;6.754;2024-01-06T01:39:40;99974.16;;;7.42;89.19
28004;BME280;15330;51.234;6.754;2024-01-06T01:42:06;99983.06;;;7.32;89.47
28004;BME280;15330;51.234;6.754;2024-01-06T01:44:31;99979.28;;;7.34;89.71
28004;BME280;15330;51.234;6.754;2024-01-06T01:46:57;99986.81;;;7.19;90.36
28004;BME280;15330;51.234;6.754;2024-01-06T01:49:22;99982.22;;;7.31;89.87
28004;BME280;15330;51.234;6.754;2024-01-06T01:51:49;99984.25;;;7.39;90.00
28004;BME280;15330;51.234;6.754;2024-01-06T01:54:15;99992.53;;;7.45;89.56
28004;BME280;15330;51.234;6.754;2024-01-06T01:56:41;99997.63;;;7.28;90.08
28004;BME280;15330;51.234;6.754;2024-01-06T01:59:11;100005.22;;;7.32;90.23
28004;BME280;15330;51.234;6.754;2024-01-06T02:01:37;99999.91;;;7.32;90.02
28004;BME280;15330;51.234;6.754;2024-01-06T02:04:03;99999.38;;;7.38;90.24
28004;BME280;15330;51.234;6.754;2024-01-06T02:06:28;100003.63;;;7.51;89.48
28004;BME280;15330;51.234;6.754;2024-01-06T02:08:54;100007.06;;;7.41;90.50
28004;BME280;15330;51.234;6.754;2024-01-06T02:11:20;100006.91;;;7.33;90.89
28004;BME280;15330;51.234;6.754;2024-01-06T02:13:45;100008.22;;;7.39;90.28
28004;BME280;15330;51.234;6.754;2024-01-06T02:16:11;100010.16;;;7.37;90.31
28004;BME280;15330;51.234;6.754;2024-01-06T02:18:36;100017.03;;;7.39;90.75
28004;BME280;15330;51.234;6.754;2024-01-06T02:21:02;100010.09;;;7.27;90.75
28004;BME280;15330;51.234;6.754;2024-01-06T02:23:28;100009.69;;;7.32;91.28
28004;BME280;15330;51.234;6.754;2024-01-06T02:25:54;100021.22;;;7.32;91.18
28004;BME280;15330;51.234;6.754;2024-01-06T02:28:20;100015.16;;;7.30;91.27
28004;BME280;15330;51.234;6.754;2024-01-06T02:30:46;100016.72;;;7.33;91.11
28004;BME280;15330;51.234;6.754;2024-01-06T02:33:11;100016.06;;;7.40;90.92
28004;BME280;15330;51.234;6.754;2024-01-06T02:35:37;100019.38;;;7.33;90.89
28004;BME280;15330;51.234;6.754;2024-01-06T02:38:02;100022.88;;;7.33;91.37
28004;BME280;15330;51.234;6.754;2024-01-06T02:40:28;100027.53;;;7.41;91.17
28004;BME280;15330;51.234;6.754;2024-01-06T02:42:53;100028.38;;;7.41;91.30
28004;BME280;15330;51.234;6.754;2024-01-06T02:45:19;100032.56;;;7.34;91.73
28004;BME280;15330;51.234;6.754;2024-01-06T02:47:44;100036.38;;;7.41;91.52
28004;BME280;15330;51.234;6.754;2024-01-06T02:50:10;100049.00;;;7.39;91.93
28004;BME280;15330;51.234;6.754;2024-01-06T02:52:35;100051.41;;;7.42;91.29
28004;BME280;15330;51.234;6.754;2024-01-06T02:55:01;100059.13;;;7.45;91.11
28004;BME280;15330;51.234;6.754;2024-01-06T02:57:30;100058.88;;;7.49;91.56
28004;BME280;15330;51.234;6.754;2024-01-06T02:59:56;100062.75;;;7.44;91.53
28004;BME280;15330;51.234;6.754;2024-01-06T03:02:22;100063.59;;;7.24;92.64
28004;BME280;15330;51.234;6.754;2024-01-06T03:04:47;100061.84;;;7.34;91.84
28004;BME280;15330;51.234;6.754;2024-01-06T03:07:12;100062.03;;;7.42;91.62
28004;BME280;15330;51.234;6.754;2024-01-06T03:09:38;100058.91;;;7.37;91.86
28004;BME280;15330;51.234;6.754;2024-01-06T03:12:06;100069.44;;;7.39;91.59
28004;BME280;15330;51.234;6.754;2024-01-06T03:14:34;100065.81;;;7.40;91.55
28004;BME280;15330;51.234;6.754;2024-01-06T03:16:59;100078.72;;;7.44;91.08
28004;BME280;15330;51.234;6.754;2024-01-06T03:19:25;100083.47;;;7.41;90.89
28004;BME280;15330;51.234;6.754;2024-01-06T03:21:52;100085.38;;;7.29;91.55
28004;BME280;15330;51.234;6.754;2024-01-06T03:24:18;100087.03;;;7.30;91.65
28004;BME280;15330;51.234;6.754;2024-01-06T03:26:43;100092.13;;;7.33;90.81
28004;BME280;15330;51.234;6.754;2024-01-06T03:29:08;100088.03;;;7.29;91.36
28004;BME280;15330;51.234;6.754;2024-01-06T03:31:34;100092.59;;;7.38;90.87
28004;BME280;15330;51.234;6.754;2024-01-06T03:33:59;100094.31;;;7.28;90.81
28004;BME280;15330;51.234;6.754;2024-01-06T03:36:25;100093.47;;;7.28;91.47
28004;BME280;15330;51.234;6.754;2024-01-06T03:38:50;100088.91;;;7.18;91.12
28004;BME280;15330;51.234;6.754;2024-01-06T03:41:15;100099.63;;;7.28;90.97
28004;BME280;15330;51.234;6.754;2024-01-06T03:43:41;100104.34;;;7.04;91.33
28004;BME280;15330;51.234;6.754;2024-01-06T03:46:06;100107.78;;;7.15;91.35
28004;BME280;15330;51.234;6.754;2024-01-06T03:48:31;100118.66;;;6.91;91.44
28004;BME280;15330;51.234;6.754;2024-01-06T03:50:58;100115.44;;;7.09;90.86
28004;BME280;15330;51.234;6.754;2024-01-06T03:53:24;100123.66;;;6.73;89.26
28004;BME280;15330;51.234;6.754;2024-01-06T03:55:49;100128.13;;;6.84;89.21
28004;BME280;15330;51.234;6.754;2024-01-06T03:58:15;100128.44;;;6.36;89.41
28004;BME280;15330;51.234;6.754;2024-01-06T04:00:40;100135.31;;;6.50;89.50
28004;BME280;15330;51.234;6.754;2024-01-06T04:03:05;100137.38;;;6.35;89.34
28004;BME280;15330;51.234;6.754;2024-01-06T04:05:32;100141.47;;;6.50;89.00
28004;BME280;15330;51.234;6.754;2024-01-06T04:07:57;100144.88;;;6.52;87.95
28004;BME280;15330;51.234;6.754;2024-01-06T04:10:22;100143.16;;;6.51;87.91
28004;BME280;15330;51.234;6.754;2024-01-06T04:12:48;100142.09;;;6.43;87.37
28004;BME280;15330;51.234;6.754;2024-01-06T04:15:13;100135.47;;;6.15;87.78
28004;BME280;15330;51.234;6.754;2024-01-06T04:17:38;100145.84;;;6.29;88.32
28004;BME280;15330;51.234;6.754;2024-01-06T04:20:04;100145.59;;;6.43;86.95
28004;BME280;15330;51.234;6.754;2024-01-06T04:22:30;100142.91;;;6.54;86.36
28004;BME280;15330;51.234;6.754;2024-01-06T04:24:55;100153.22;;;6.25;87.09
28004;BME280;15330;51.234;6.754;2024-01-06T04:27:21;100151.41;;;6.15;87.70
28004;BME280;15330;51.234;6.754;2024-01-06T04:29:46;100150.13;;;5.85;88.38
28004;BME280;15330;51.234;6.754;2024-01-06T04:32:12;100148.13;;;6.22;87.53
28004;BME280;15330;51.234;6.754;2024-01-06T04:34:37;100151.78;;;6.33;86.66
28004;BME280;15330;51.234;6.754;2024-01-06T04:37:02;100162.88;;;6.38;86.93
28004;BME280;15330;51.234;6.754;2024-01-06T04:39:28;100157.09;;;6.33;86.46
28004;BME280;15330;51.234;6.754;2024-01-06T04:41:53;100159.38;;;6.26;86.80
28004;BME280;15330;51.234;6.754;2024-01-06T04:44:20;100164.94;;;6.23;86.34
28004;BME280;15330;51.234;6.754;2024-01-06T04:46:46;100163.13;;;6.23;86.87
28004;BME280;15330;51.234;6.754;2024-01-06T04:49:11;100167.00;;;6.30;86.38
28004;BME280;15330;51.234;6.754;2024-01-06T04:51:37;100164.19;;;6.32;86.64
28004;BME280;15330;51.234;6.754;2024-01-06T04:54:03;100164.81;;;6.13;86.39
28004;BME280;15330;51.234;6.754;2024-01-06T04:56:28;100176.66;;;6.20;86.70
28004;BME280;15330;51.234;6.754;2024-01-06T04:58:53;100166.03;;;6.20;85.92
28004;BME280;15330;51.234;6.754;2024-01-06T05:01:19;100176.66;;;6.20;85.88
28004;BME280;15330;51.234;6.754;2024-01-06T05:03:45;100178.47;;;6.31;85.52
28004;BME280;15330;51.234;6.754;2024-01-06T05:06:10;100179.53;;;6.28;85.96
28004;BME280;15330;51.234;6.754;2024-01-06T05:08:36;100183.44;;;6.13;86.13
28004;BME280;15330;51.234;6.754;2024-01-06T05:11:06;100181.00;;;6.10;86.30
28004;BME280;15330;51.234;6.754;2024-01-06T05:13:32;100188.00;;;6.22;86.09
28004;BME280;15330;51.234;6.754;2024-01-06T05:15:57;100192.97;;;6.27;85.23
28004;BME280;15330;51.234;6.754;2024-01-06T05:18:22;100192.00;;;6.17;85.94
28004;BME280;15330;51.234;6.754;2024-01-06T05:20:48;100198.97;;;6.06;85.87
28004;BME280;15330;51.234;6.754;2024-01-06T05:23:13;100192.94;;;6.16;86.50
28004;BME280;15330;51.234;6.754;2024-01-06T05:25:39;100201.50;;;5.97;85.76
28004;BME280;15330;51.234;6.754;2024-01-06T05:28:04;100198.75;;;6.10;85.61
28004;BME280;15330;51.234;6.754;2024-01-06T05:30:30;100197.78;;;6.11;85.76
28004;BME280;15330;51.234;6.754;2024-01-06T05:32:55;100203.50;;;6.40;85.21
28004;BME280;15330;51.234;6.754;2024-01-06T05:35:21;100207.09;;;6.72;84.70
28004;BME280;15330;51.234;6.754;2024-01-06T05:37:46;100203.22;;;6.76;83.77
28004;BME280;15330;51.234;6.754;2024-01-06T05:40:13;100213.03;;;6.65;83.07
28004;BME280;15330;51.234;6.754;2024-01-06T05:42:39;100207.97;;;6.62;83.32
28004;BME280;15330;51.234;6.754;2024-01-06T05:45:05;100219.91;;;6.79;83.21
28004;BME280;15330;51.234;6.754;2024-01-06T05:47:30;100216.28;;;6.57;83.07
28004;BME280;15330;51.234;6.754;2024-01-06T05:49:56;100223.03;;;6.84;82.99
28004;BME280;15330;51.234;6.754;2024-01-06T05:52:21;100221.72;;;6.89;83.13
28004;BME280;15330;51.234;6.754;2024-01-06T05:54:46;100225.84;;;6.60;83.43
28004;BME280;15330;51.234;6.754;2024-01-06T05:57:12;100225.13;;;6.46;83.96
28004;BME280;15330;51.234;6.754;2024-01-06T05:59:37;100227.28;;;6.41;84.23
28004;BME280;15330;51.234;6.754;2024-01-06T06:02:03;100240.22;;;6.35;84.55
28004;BME280;15330;51.234;6.754;2024-01-06T06:04:28;100236.25;;;6.40;84.26
28004;BME280;15330;51.234;6.754;2024-01-06T06:06:54;100249.75;;;6.26;84.31
28004;BME280;15330;51.234;6.754;2024-01-06T06:09:19;100253.94;;;6.06;85.12
28004;BME280;15330;51.234;6.754;2024-01-06T06:11:46;100261.59;;;6.22;85.06
28004;BME280;15330;51.234;6.754;2024-01-06T06:14:12;100263.25;;;6.12;84.80
28004;BME280;15330;51.234;6.754;2024-01-06T06:16:38;100272.34;;;6.20;85.04
28004;BME280;15330;51.234;6.754;2024-01-06T06:19:03;100275.94;;;6.19;84.32
28004;BME280;15330;51.234;6.754;2024-01-06T06:21:28;100273.66;;;6.15;84.55
28004;BME280;15330;51.234;6.754;2024-01-06T06:23:54;100274.16;;;6.20;84.07
28004;BME280;15330;51.234;6.754;2024-01-06T06:26:19;100283.91;;;6.08;84.31
28004;BME280;15330;51.234;6.754;2024-01-06T06:28:45;100293.63;;;5.48;86.19
28004;BME280;15330;51.234;6.754;2024-01-06T06:31:10;100301.56;;;5.85;85.66
28004;BME280;15330;51.234;6.754;2024-01-06T06:33:35;100290.47;;;5.91;85.60
28004;BME280;15330;51.234;6.754;2024-01-06T06:36:01;100301.63;;;5.96;84.48
28004;BME280;15330;51.234;6.754;2024-01-06T06:38:27;100302.00;;;6.03;84.70
28004;BME280;15330;51.234;6.754;2024-01-06T06:40:52;100306.81;;;5.74;85.61
28004;BME280;15330;51.234;6.754;2024-01-06T06:43:18;100319.00;;;5.76;85.19
28004;BME280;15330;51.234;6.754;2024-01-06T06:45:43;100319.19;;;5.86;85.35
28004;BME280;15330;51.234;6.754;2024-01-06T06:48:09;100323.63;;;5.61;85.46
28004;BME280;15330;51.234;6.754;2024-01-06T06:50:34;100327.66;;;5.91;84.79
28004;BME280;15330;51.234;6.754;2024-01-06T06:52:59;100326.00;;;5.77;84.55
28004;BME280;15330;51.234;6.754;2024-01-06T06:55:26;100330.75;;;5.98;84.76
28004;BME280;15330;51.234;6.754;2024-01-06T06:57:52;100340.03;;;6.03;84.86
28004;BME280;15330;51.234;6.754;2024-01-06T07:00:18;100335.03;;;5.88;85.45
28004;BME280;15330;51.234;6.754;2024-01-06T07:02:43;100340.94;;;5.91;85.10
28004;BME280;15330;51.234;6.754;2024-01-06T07:05:09;100342.84;;;5.89;86.47
28004;BME280;15330;51.234;6.754;2024-01-06T07:07:34;100347.00;;;5.93;86.92
28004;BME280;15330;51.234;6.754;2024-01-06T07:10:02;100353.16;;;6.18;86.11
28004;BME280;15330;51.234;6.754;2024-01-06T07:12:32;100353.66;;;6.58;84.26
28004;BME280;15330;51.234;6.754;2024-01-06T07:14:57;100357.50;;;6.65;84.30
28004;BME280;15330;51.234;6.754;2024-01-06T07:17:24;100371.63;;;6.54;83.90
28004;BME280;15330;51.234;6.754;2024-01-06T07:19:49;100359.66;;;6.60;84.78
28004;BME280;15330;51.234;6.754;2024-01-06T07:22:15;100380.31;;;6.45;85.34
28004;BME280;15330;51.234;6.754;2024-01-06T07:24:42;100376.09;;;6.19;85.36
28004;BME280;15330;51.234;6.754;2024-01-06T07:27:07;100376.31;;;5.92;86.87
28004;BME280;15330;51.234;6.754;2024-01-06T07:29:32;100385.94;;;5.81;86.73
28004;BME280;15330;51.234;6.754;2024-01-06T07:31:58;100384.19;;;5.93;86.68
28004;BME280;15330;51.234;6.754;2024-01-06T07:34:23;100384.75;;;5.86;87.19
28004;BME280;15330;51.234;6.754;2024-01-06T07:36:50;100392.94;;;5.82;87.10
28004;BME280;15330;51.234;6.754;2024-01-06T07:39:16;100390.09;;;5.73;87.46
28004;BME280;15330;51.234;6.754;2024-01-06T07:41:42;100402.16;;;5.90;87.08
28004;BME280;15330;51.234;6.754;2024-01-06T07:44:07;100399.22;;;5.81;87.31
28004;BME280;15330;51.234;6.754;2024-01-06T07:46:33;100403.13;;;5.89;87.31
28004;BME280;15330;51.234;6.754;2024-01-06T07:49:00;100413.53;;;5.92;87.34
28004;BME280;15330;51.234;6.754;2024-01-06T07:51:25;100422.38;;;5.79;87.05
28004;BME280;15330;51.234;6.754;2024-01-06T07:53:50;100414.97;;;5.72;87.97
28004;BME280;15330;51.234;6.754;2024-01-06T07:56:16;100419.50;;;5.95;87.58
28004;BME280;15330;51.234;6.754;2024-01-06T07:58:42;100420.09;;;5.99;87.34
28004;BME280;15330;51.234;6.754;2024-01-06T08:01:07;100428.91;;;5.99;87.62
28004;BME280;15330;51.234;6.754;2024-01-06T08:03:32;100424.31;;;6.14;87.14
28004;BME280;15330;51.234;6.754;2024-01-06T08:05:58;100432.09;;;6.04;86.71
28004;BME280;15330;51.234;6.754;2024-01-06T08:08:23;100437.88;;;5.98;87.21
28004;BME280;15330;51.234;6.754;2024-01-06T08:10:48;100438.84;;;5.97;86.80
28004;BME280;15330;51.234;6.754;2024-01-06T08:13:14;100452.06;;;5.60;87.99
28004;BME280;15330;51.234;6.754;2024-01-06T08:15:39;100451.69;;;5.91;87.31
28004;BME280;15330;51.234;6.754;2024-01-06T08:18:05;100449.34;;;5.86;87.21
28004;BME280;15330;51.234;6.754;2024-01-06T08:20:31;100455.63;;;5.85;87.31
28004;BME280;15330;51.234;6.754;2024-01-06T08:22:56;100455.50;;;5.87;87.51
28004;BME280;15330;51.234;6.754;2024-01-06T08:25:21;100464.84;;;6.05;87.06
28004;BME280;15330;51.234;6.754;2024-01-06T08:27:47;100471.13;;;5.91;87.61
28004;BME280;15330;51.234;6.754;2024-01-06T08:30:12;100472.81;;;5.92;87.42
28004;BME280;15330;51.234;6.754;2024-01-06T08:32:38;100475.53;;;5.67;87.60
28004;BME280;15330;51.234;6.754;2024-01-06T08:35:04;100484.91;;;5.59;88.57
28004;BME280;15330;51.234;6.754;2024-01-06T08:37:30;100497.31;;;5.72;88.24
28004;BME280;15330;51.234;6.754;2024-01-06T08:39:55;100488.66;;;5.81;88.54
28004;BME280;15330;51.234;6.754;2024-01-06T08:42:21;100498.63;;;5.28;89.89
28004;BME280;15330;51.234;6.754;2024-01-06T08:44:46;100498.91;;;5.36;89.90
28004;BME280;15330;51.234;6.754;2024-01-06T08:47:12;100503.16;;;5.13;90.24
28004;BME280;15330;51.234;6.754;2024-01-06T08:49:37;100510.41;;;5.24;90.60
28004;BME280;15330;51.234;6.754;2024-01-06T08:52:03;100514.84;;;5.49;89.04
28004;BME280;15330;51.234;6.754;2024-01-06T08:54:31;100513.69;;;5.40;90.03
28004;BME280;15330;51.234;6.754;2024-01-06T08:56:57;100522.09;;;5.47;89.30
28004;BME280;15330;51.234;6.754;2024-01-06T08:59:22;100527.91;;;5.26;89.02
28004;BME280;15330;51.234;6.754;2024-01-06T09:01:47;100535.34;;;5.21;90.36
28004;BME280;15330;51.234;6.754;2024-01-06T09:04:13;100527.38;;;5.47;90.78
28004;BME280;15330;51.234;6.754;2024-01-06T09:06:38;100531.84;;;5.97;89.66
28004;BME280;15330;51.234;6.754;2024-01-06T09:09:04;100539.84;;;6.21;88.92
28004;BME280;15330;51.234;6.754;2024-01-06T09:11:30;100544.44;;;6.43;88.76
28004;BME280;15330;51.234;6.754;2024-01-06T09:13:56;100543.41;;;6.33;87.19
28004;BME280;15330;51.234;6.754;2024-01-06T09:16:21;100551.25;;;6.11;87.46
28004;BME280;15330;51.234;6.754;2024-01-06T09:18:47;100547.31;;;5.91;87.56
28004;BME280;15330;51.234;6.754;2024-01-06T09:21:13;100552.56;;;6.29;87.92
28004;BME280;15330;51.234;6.754;2024-01-06T09:23:39;100553.53;;;6.28;86.96
28004;BME280;15330;51.234;6.754;2024-01-06T09:26:04;100554.72;;;6.24;87.25
28004;BME280;15330;51.234;6.754;2024-01-06T09:28:29;100566.16;;;6.00;87.66
28004;BME280;15330;51.234;6.754;2024-01-06T09:30:55;100562.53;;;6.01;87.47
28004;BME280;15330;51.234;6.754;2024-01-06T09:33:22;100576.22;;;5.82;87.54
28004;BME280;15330;51.234;6.754;2024-01-06T09:35:47;100574.75;;;5.66;87.82
28004;BME280;15330;51.234;6.754;2024-01-06T09:38:12;100580.50;;;5.59;88.46
28004;BME280;15330;51.234;6.754;2024-01-06T09:40:42;100578.81;;;5.46;89.45
28004;BME280;15330;51.234;6.754;2024-01-06T09:43:11;100582.50;;;5.56;89.17
28004;BME280;15330;51.234;6.754;2024-01-06T09:45:37;100595.44;;;5.48;88.61
28004;BME280;15330;51.234;6.754;2024-01-06T09:48:11;100599.47;;;5.28;89.24
28004;BME280;15330;51.234;6.754;2024-01-06T09:50:41;100603.00;;;5.67;88.26
28004;BME280;15330;51.234;6.754;2024-01-06T09:53:09;100598.66;;;5.53;87.96
28004;BME280;15330;51.234;6.754;2024-01-06T09:55:36;100605.28;;;5.07;89.48
28004;BME280;15330;51.234;6.754;2024-01-06T09:58:02;100617.22;;;5.40;88.44
28004;BME280;15330;51.234;6.754;2024-01-06T10:00:28;100613.25;;;5.20;89.20
28004;BME280;15330;51.234;6.754;2024-01-06T10:02:54;100616.19;;;5.03;90.01
28004;BME280;15330;51.234;6.754;2024-01-06T10:05:20;100619.09;;;5.25;88.91
28004;BME280;15330;51.234;6.754;2024-01-06T10:07:47;100625.13;;;4.87;90.38
28004;BME280;15330;51.234;6.754;2024-01-06T10:10:14;100629.50;;;4.88;90.77
28004;BME280;15330;51.234;6.754;2024-01-06T10:12:40;100635.78;;;5.00;90.02
28004;BME280;15330;51.234;6.754;2024-01-06T10:15:07;100640.53;;;5.22;88.96
28004;BME280;15330;51.234;6.754;2024-01-06T10:17:36;100643.16;;;5.09;89.15
28004;BME280;15330;51.234;6.754;2024-01-06T10:20:02;100635.53;;;4.90;90.17
28004;BME280;15330;51.234;6.754;2024-01-06T10:22:28;100642.13;;;5.25;88.45
28004;BME280;15330;51.234;6.754;2024-01-06T10:24:54;100630.97;;;5.20;88.55
28004;BME280;15330;51.234;6.754;2024-01-06T10:27:21;100635.56;;;5.30;88.25
28004;BME280;15330;51.234;6.754;2024-01-06T10:29:47;100639.59;;;5.36;88.32
28004;BME280;15330;51.234;6.754;2024-01-06T10:32:12;100642.50;;;5.33;88.28
28004;BME280;15330;51.234;6.754;2024-01-06T10:34:38;100633.66;;;5.32;88.55
28004;BME280;15330;51.234;6.754;2024-01-06T10:37:03;100640.56;;;5.35;88.02
28004;BME280;15330;51.234;6.754;2024-01-06T10:39:29;100641.69;;;4.91;88.87
28004;BME280;15330;51.234;6.754;2024-01-06T10:41:55;100641.59;;;5.20;89.06
28004;BME280;15330;51.234;6.754;2024-01-06T10:44:21;100640.81;;;5.05;88.52
28004;BME280;15330;51.234;6.754;2024-01-06T10:46:48;100651.41;;;4.78;89.82
28004;BME280;15330;51.234;6.754;2024-01-06T10:49:15;100647.41;;;5.12;88.73
28004;BME280;15330;51.234;6.754;2024-01-06T10:51:40;100644.91;;;4.96;88.66
28004;BME280;15330;51.234;6.754;2024-01-06T10:54:06;100644.19;;;5.07;88.30
28004;BME280;15330;51.234;6.754;2024-01-06T10:56:37;100647.09;;;5.17;87.95
28004;BME280;15330;51.234;6.754;2024-01-06T10:59:07;100647.22;;;5.15;88.17
28004;BME280;15330;51.234;6.754;2024-01-06T11:01:33;100641.19;;;5.26;87.50
28004;BME280;15330;51.234;6.754;2024-01-06T11:04:00;100644.91;;;4.69;89.49
28004;BME280;15330;51.234;6.754;2024-01-06T11:06:26;100658.25;;;4.67;88.75
28004;BME280;15330;51.234;6.754;2024-01-06T11:11:30;100655.25;;;5.13;87.83
28004;BME280;15330;51.234;6.754;2024-01-06T11:14:28;100651.75;;;5.13;86.69
28004;BME280;15330;51.234;6.754;2024-01-06T11:16:54;100650.56;;;5.44;86.90
28004;BME280;15330;51.234;6.754;2024-01-06T11:24:48;100662.72;;;4.67;88.80
28004;BME280;15330;51.234;6.754;2024-01-06T11:27:22;100656.38;;;4.97;87.93
28004;BME280;15330;51.234;6.754;2024-01-06T11:29:51;100656.69;;;4.92;87.45
28004;BME280;15330;51.234;6.754;2024-01-06T11:32:27;100659.47;;;5.03;86.85
28004;BME280;15330;51.234;6.754;2024-01-06T11:34:54;100657.31;;;5.23;86.21
28004;BME280;15330;51.234;6.754;2024-01-06T11:42:48;100663.56;;;5.22;87.59
28004;BME280;15330;51.234;6.754;2024-01-06T11:45:14;100651.94;;;5.37;86.10
28004;BME280;15330;51.234;6.754;2024-01-06T11:47:40;100661.63;;;4.84;87.20
28004;BME280;15330;51.234;6.754;2024-01-06T11:50:12;100656.13;;;4.87;86.85
28004;BME280;15330;51.234;6.754;2024-01-06T11:52:38;100659.94;;;4.68;87.82
28004;BME280;15330;51.234;6.754;2024-01-06T11:55:05;100662.38;;;4.86;87.55
28004;BME280;15330;51.234;6.754;2024-01-06T11:57:32;100664.53;;;4.66;87.12
28004;BME280;15330;51.234;6.754;2024-01-06T11:59:58;100657.91;;;4.86;86.86
28004;BME280;15330;51.234;6.754;2024-01-06T12:02:23;100667.56;;;4.60;87.46
28004;BME280;15330;51.234;6.754;2024-01-06T12:04:50;100666.44;;;4.92;86.88
28004;BME280;15330;51.234;6.754;2024-01-06T12:07:19;100663.59;;;4.95;86.90
28004;BME280;15330;51.234;6.754;2024-01-06T12:09:50;100659.28;;;5.06;86.79
28004;BME280;15330;51.234;6.754;2024-01-06T12:12:16;100659.88;;;4.97;86.08
28004;BME280;15330;51.234;6.754;2024-01-06T12:14:42;100653.63;;;4.98;87.24
28004;BME280;15330;51.234;6.754;2024-01-06T12:17:09;100663.09;;;4.61;87.71
28004;BME280;15330;51.234;6.754;2024-01-06T12:19:35;100661.38;;;4.74;86.94
28004;BME280;15330;51.234;6.754;2024-01-06T12:22:01;100666.22;;;4.67;86.96
28004;BME280;15330;51.234;6.754;2024-01-06T12:24:28;100668.97;;;4.66;87.54
28004;BME280;15330;51.234;6.754;2024-01-06T12:26:56;100667.91;;;4.68;87.17
28004;BME280;15330;51.234;6.754;2024-01-06T12:29:22;100675.41;;;4.62;87.98
28004;BME280;15330;51.234;6.754;2024-01-06T12:31:47;100668.88;;;4.67;87.90
28004;BME280;15330;51.234;6.754;2024-01-06T12:34:13;100669.16;;;4.63;87.17
28004;BME280;15330;51.234;6.754;2024-01-06T12:36:39;100668.94;;;4.25;88.33
28004;BME280;15330;51.234;6.754;2024-01-06T12:39:10;100674.28;;;4.52;87.77
28004;BME280;15330;51.234;6.754;2024-01-06T12:41:39;100675.81;;;4.41;87.26
28004;BME280;15330;51.234;6.754;2024-01-06T12:44:04;100688.22;;;4.41;87.06
28004;BME280;15330;51.234;6.754;2024-01-06T12:46:30;100688.13;;;4.42;87.03
28004;BME280;15330;51.234;6.754;2024-01-06T12:48:55;100690.69;;;4.44;87.85
28004;BME280;15330;51.234;6.754;2024-01-06T12:51:20;100688.69;;;4.33;87.99
28004;BME280;15330;51.234;6.754;2024-01-06T12:53:46;100689.84;;;4.15;88.58
28004;BME280;15330;51.234;6.754;2024-01-06T12:56:11;100688.72;;;4.05;88.81
28004;BME280;15330;51.234;6.754;2024-01-06T12:58:40;100704.13;;;4.27;88.41
28004;BME280;15330;51.234;6.754;2024-01-06T13:01:05;100697.22;;;4.24;87.74
28004;BME280;15330;51.234;6.754;2024-01-06T13:03:32;100694.09;;;4.32;87.33
28004;BME280;15330;51.234;6.754;2024-01-06T13:05:58;100696.84;;;4.30;87.59
28004;BME280;15330;51.234;6.754;2024-01-06T13:08:23;100694.47;;;4.26;87.49